Time;durP1;ratioP1;P1;durP2;ratioP2;P2;SDS_P1;SDS_P2;PMS_P1;PMS_P2;Temp;Humidity;BMP_temperature;BMP_pressure;BME280_temperature;BME280_humidity;BME280_pressure;Samples;Min_cycle;Max_cycle;Signal;HPM_P1;HPM_P2
2021/11/08 00:00:12;;;;;;;;;;;;;;;;;;1025345;28;815;-22
2021/11/08 00:00:45;;;;;;;;;;;;;;;;;;1025110;28;1046;-22
2021/11/08 00:01:16;;;;;;;;;;;;;;;;;;1025344;28;937;-21
2021/11/08 00:01:48;;;;;;;;;;;;;;;;;;1025356;28;854;-21
2021/11/08 00:02:19;;;;;;;;;;;;;;;;;;1025109;28;966;-21
2021/11/08 00:02:53;;;;;;;;;;;;;;;;;;1025311;28;946;-22
2021/11/08 00:03:27;;;;;;;;;;;;;;;;;;1025460;28;815;-21
2021/11/08 00:03:57;;;;;;;;;;;;;;;;;;1025169;28;984;-21
2021/11/08 00:04:27;;;;;;;;;;;;;;;;;;1025199;28;1008;-21
2021/11/08 00:04:58;;;;;;;;;;;;;;;;;;1025334;28;878;-21
2021/11/08 00:05:35;;;;;;;;;;;;;;;;;;1025302;28;918;-21
2021/11/08 00:06:08;;;;;;;;;;;;;;;;;;1025286;28;957;-21
2021/11/08 00:06:39;;;;;;;;;;;;;;;;;;1025175;28;1378;-21
2021/11/08 00:07:12;;;;;;;;;;;;;;;;;;1025258;28;1165;-21
2021/11/08 00:07:46;;;;;;;;;;;;;;;;;;1025418;28;878;-21
2021/11/08 00:08:17;;;;;;;;;;;;;;;;;;1025145;28;1218;-22
2021/11/08 00:08:48;;;;;;;;;;;;;;;;;;1025319;28;1037;-21
2021/11/08 00:09:19;;;;;;;;;;;;;;;;;;1025455;28;878;-21
2021/11/08 00:09:49;;;;;;;;;;;;;;;;;;1025377;28;911;-21
2021/11/08 00:10:27;;;;;;;;;;;;;;;;;;1024905;28;978;-21
2021/11/08 00:10:57;;;;;;;;;;;;;;;;;;1016150;28;1020;-21
2021/11/08 00:11:28;;;;;;;;;;;;;;;;;;1025331;28;942;-22
2021/11/08 00:11:58;;;;;;;;;;;;;;;;;;1019653;28;874;-22
2021/11/08 00:12:29;;;;;;;;;;;;;;;;;;1019493;28;2208;-21
2021/11/08 00:13:04;;;;;;;;;;;;;;;;;;1021119;28;1137;-21
2021/11/08 00:13:36;;;;;;;;;;;;;;;;;;1021305;28;953;-21
2021/11/08 00:14:11;;;;;;;;;;;;;;;;;;1021280;28;951;-21
2021/11/08 00:14:43;;;;;;;;;;;;;;;;;;1021236;28;974;-22
2021/11/08 00:15:17;;;;;;;;;;;;;;;;;;1021324;28;953;-21
2021/11/08 00:16:49;;;;;;;;;;;;;;;;;;1021111;28;1052;-22
2021/11/08 00:17:43;;;;;;;;;;;;;;;;;;1021293;28;957;-21
2021/11/08 00:18:25;;;;;;;;;;;;;;;;;;1024939;28;895;-21
2021/11/08 00:20:27;;;;;;;;;;;;;;;;;;1021508;28;930;-22
2021/11/08 00:20:58;;;;;;;;;;;;;;;;;;1021352;28;965;-21
2021/11/08 00:21:34;;;;;;;;;;;;;;;;;;1021511;28;987;-21
2021/11/08 00:22:04;;;;;;;;;;;;;;;;;;1021370;28;1037;-21
2021/11/08 00:22:38;;;;;;;;;;;;;;;;;;1021307;28;928;-21
2021/11/08 00:23:09;;;;;;;;;;;;;;;;;;1021233;28;1005;-21
2021/11/08 00:23:39;;;;;;;;;;;;;;;;;;1021234;28;818;-21
2021/11/08 00:24:15;;;;;;;;;;;;;;;;;;1021464;28;946;-22
2021/11/08 00:24:48;;;;;;;;;;;;;;;;;;1021536;28;543;-21
2021/11/08 00:25:22;;;;;;;;;;;;;;;;;;1021467;28;787;-21
2021/11/08 00:25:53;;;;;;;;;;;;;;;;;;1021241;28;855;-21
2021/11/08 00:26:24;;;;;;;;;;;;;;;;;;1021377;28;994;-22
2021/11/08 00:26:54;;;;;;;;;;;;;;;;;;1021168;28;827;-22
2021/11/08 00:27:25;;;;;;;;;;;;;;;;;;1021439;28;963;-21
2021/11/08 00:27:55;;;;;;;;;;;;;;;;;;1021376;28;950;-21
2021/11/08 00:28:25;;;;;;;;;;;;;;;;;;1021490;28;915;-21
2021/11/08 00:28:58;;;;;;;;;;;;;;;;;;1021067;28;878;-21
2021/11/08 00:29:30;;;;;;;;;;;;;;;;;;1021566;28;1041;-21
2021/11/08 00:30:01;;;;;;;;;;;;;;;;;;1021031;28;935;-21
2021/11/08 00:30:32;;;;;;;;;;;;;;;;;;1021508;28;918;-21
2021/11/08 00:31:08;;;;;;;;;;;;;;;;;;1021407;28;980;-21
2021/11/08 00:31:38;;;;;;;;;;;;;;;;;;1021150;28;982;-21
2021/11/08 00:32:09;;;;;;;;;;;;;;;;;;1021397;28;993;-21
2021/11/08 00:32:40;;;;;;;;;;;;;;;;;;1021329;28;978;-20
2021/11/08 00:33:17;;;;;;;;;;;;;;;;;;1021127;28;910;-21
2021/11/08 00:33:47;;;;;;;;;;;;;;;;;;1021537;28;974;-21
2021/11/08 00:34:18;;;;;;;;;;;;;;;;;;1021218;28;1025;-21
2021/11/08 00:34:48;;;;;;;;;;;;;;;;;;1021413;28;915;-21
2021/11/08 00:35:19;;;;;;;;;;;;;;;;;;1021120;28;1006;-22
2021/11/08 00:35:51;;;;;;;;;;;;;;;;;;1021366;28;926;-21
2021/11/08 00:36:21;;;;;;;;;;;;;;;;;;1021095;28;1726;-22
2021/11/08 00:36:52;;;;;;;;;;;;;;;;;;1021227;28;978;-21
2021/11/08 00:37:22;;;;;;;;;;;;;;;;;;1021330;28;850;-21
2021/11/08 00:37:53;;;;;;;;;;;;;;;;;;1025520;28;1045;-22
2021/11/08 00:38:24;;;;;;;;;;;;;;;;;;1025556;28;997;-21
2021/11/08 00:38:58;;;;;;;;;;;;;;;;;;1025615;28;1915;-21
2021/11/08 00:39:28;;;;;;;;;;;;;;;;;;1025170;28;1062;-21
2021/11/08 00:39:58;;;;;;;;;;;;;;;;;;1021927;28;784;-22
2021/11/08 00:40:31;;;;;;;;;;;;;;;;;;1022149;28;1071;-21
2021/11/08 00:41:03;;;;;;;;;;;;;;;;;;1021754;28;1161;-21
2021/11/08 00:41:33;;;;;;;;;;;;;;;;;;1021941;28;902;-22
2021/11/08 00:42:04;;;;;;;;;;;;;;;;;;1022017;28;960;-21
2021/11/08 00:42:34;;;;;;;;;;;;;;;;;;1024576;28;1043;-25
2021/11/08 00:43:05;;;;;;;;;;;;;;;;;;1026009;28;946;-22
2021/11/08 00:43:38;;;;;;;;;;;;;;;;;;1026009;28;1025;-21
2021/11/08 00:44:09;;;;;;;;;;;;;;;;;;1025826;28;1036;-21
2021/11/08 00:44:39;;;;;;;;;;;;;;;;;;1025906;28;1138;-21
2021/11/08 00:45:11;;;;;;;;;;;;;;;;;;1025931;28;862;-21
2021/11/08 00:45:41;;;;;;;;;;;;;;;;;;1025856;28;1020;-21
2021/11/08 00:46:12;;;;;;;;;;;;;;;;;;1025993;28;887;-21
2021/11/08 00:46:42;;;;;;;;;;;;;;;;;;1025796;28;997;-21
2021/11/08 00:47:13;;;;;;;;;;;;;;;;;;1026089;28;851;-21
2021/11/08 00:47:43;;;;;;;;;;;;;;;;;;1026110;28;969;-21
2021/11/08 00:48:16;;;;;;;;;;;;;;;;;;1025730;28;961;-21
2021/11/08 00:48:46;;;;;;;;;;;;;;;;;;1025983;28;924;-21
2021/11/08 00:49:17;;;;;;;;;;;;;;;;;;1025915;28;930;-21
2021/11/08 00:49:48;;;;;;;;;;;;;;;;;;1026136;28;1209;-21
2021/11/08 00:50:18;;;;;;;;;;;;;;;;;;1025690;28;1230;-21
2021/11/08 00:50:50;;;;;;;;;;;;;;;;;;1026072;28;1104;-21
2021/11/08 00:51:20;;;;;;;;;;;;;;;;;;1025825;28;1069;-21
2021/11/08 00:51:51;;;;;;;;;;;;;;;;;;1025732;28;1250;-21
2021/11/08 00:52:21;;;;;;;;;;;;;;;;;;1026067;28;1009;-21
2021/11/08 00:52:52;;;;;;;;;;;;;;;;;;1026102;28;937;-21
2021/11/08 00:53:22;;;;;;;;;;;;;;;;;;1025730;28;949;-21
2021/11/08 00:53:53;;;;;;;;;;;;;;;;;;1025844;28;931;-22
2021/11/08 00:54:23;;;;;;;;;;;;;;;;;;1025955;28;1068;-21
2021/11/08 00:54:54;;;;;;;;;;;;;;;;;;1025985;28;1190;-22
2021/11/08 00:55:26;;;;;;;;;;;;;;;;;;1025971;28;1293;-21
2021/11/08 00:55:58;;;;;;;;;;;;;;;;;;1026009;28;1408;-22
2021/11/08 00:56:28;;;;;;;;;;;;;;;;;;1025723;28;942;-21
2021/11/08 00:57:00;;;;;;;;;;;;;;;;;;1025867;28;903;-21
2021/11/08 00:57:35;;;;;;;;;;;;;;;;;;1025895;28;874;-21
2021/11/08 00:58:16;;;;;;;;;;;;;;;;;;1025971;28;1050;-22
2021/11/08 00:58:47;;;;;;;;;;;;;;;;;;1025787;28;1978;-21
2021/11/08 00:59:18;;;;;;;;;;;;;;;;;;1026057;28;1081;-21
2021/11/08 00:59:50;;;;;;;;;;;;;;;;;;1025986;28;843;-21
2021/11/08 01:00:25;;;;;;;;;;;;;;;;;;1025903;28;917;-21
2021/11/08 01:00:58;;;;;;;;;;;;;;;;;;1025928;28;1010;-21
2021/11/08 01:01:30;;;;;;;;;;;;;;;;;;1025915;28;936;-21
2021/11/08 01:02:00;;;;;;;;;;;;;;;;;;1026009;28;862;-21
2021/11/08 01:02:31;;;;;;;;;;;;;;;;;;1025898;28;911;-22
2021/11/08 01:03:04;;;;;;;;;;;;;;;;;;1025742;28;950;-22
2021/11/08 01:03:38;;;;;;;;;;;;;;;;;;1025668;28;1095;-22
2021/11/08 01:04:17;;;;;;;;;;;;;;;;;;1025981;28;977;-22
2021/11/08 01:04:47;;;;;;;;;;;;;;;;;;1025894;28;954;-21
2021/11/08 01:05:17;;;;;;;;;;;;;;;;;;1025966;28;953;-21
2021/11/08 01:05:48;;;;;;;;;;;;;;;;;;1025920;28;1166;-21
2021/11/08 01:06:19;;;;;;;;;;;;;;;;;;1025716;28;970;-21
2021/11/08 01:06:50;;;;;;;;;;;;;;;;;;1025770;28;1327;-21
2021/11/08 01:07:20;;;;;;;;;;;;;;;;;;1025783;28;816;-21
2021/11/08 01:07:51;;;;;;;;;;;;;;;;;;1025998;28;1100;-21
2021/11/08 01:08:21;;;;;;;;;;;;;;;;;;1025933;28;996;-22
2021/11/08 01:08:51;;;;;;;;;;;;;;;;;;1025804;28;905;-22
2021/11/08 01:09:25;;;;;;;;;;;;;;;;;;1025887;28;1068;-21
2021/11/08 01:09:56;;;;;;;;;;;;;;;;;;1025879;28;803;-22
2021/11/08 01:10:26;;;;;;;;;;;;;;;;;;1025997;28;985;-22
2021/11/08 01:10:57;;;;;;;;;;;;;;;;;;1025992;28;950;-21
2021/11/08 01:11:28;;;;;;;;;;;;;;;;;;1026026;28;989;-21
2021/11/08 01:11:58;;;;;;;;;;;;;;;;;;1025787;28;979;-21
2021/11/08 01:12:28;;;;;;;;;;;;;;;;;;1025660;28;1045;-21
2021/11/08 01:12:59;;;;;;;;;;;;;;;;;;1025787;28;847;-22
2021/11/08 01:13:29;;;;;;;;;;;;;;;;;;1025910;28;1005;-21
2021/11/08 01:14:00;;;;;;;;;;;;;;;;;;1026008;28;862;-21
2021/11/08 01:14:30;;;;;;;;;;;;;;;;;;1025937;28;1025;-22
2021/11/08 01:15:01;;;;;;;;;;;;;;;;;;1025707;28;906;-22
2021/11/08 01:15:31;;;;;;;;;;;;;;;;;;1025889;28;946;-21
2021/11/08 01:16:02;;;;;;;;;;;;;;;;;;1025736;28;970;-21
2021/11/08 01:16:33;;;;;;;;;;;;;;;;;;1025745;28;808;-22
2021/11/08 01:17:04;;;;;;;;;;;;;;;;;;1025931;28;1529;-22
2021/11/08 01:17:35;;;;;;;;;;;;;;;;;;1025659;28;919;-22
2021/11/08 01:18:06;;;;;;;;;;;;;;;;;;1025971;28;1064;-21
2021/11/08 01:18:36;;;;;;;;;;;;;;;;;;1025675;28;1907;-21
2021/11/08 01:19:07;;;;;;;;;;;;;;;;;;1025657;28;1316;-21
2021/11/08 01:19:38;;;;;;;;;;;;;;;;;;1025574;28;1069;-21
2021/11/08 01:20:09;;;;;;;;;;;;;;;;;;1025893;28;994;-21
2021/11/08 01:20:46;;;;;;;;;;;;;;;;;;1025977;28;838;-22
2021/11/08 01:21:16;;;;;;;;;;;;;;;;;;1025670;28;1109;-21
2021/11/08 01:21:46;;;;;;;;;;;;;;;;;;1025691;28;910;-21
2021/11/08 01:22:19;;;;;;;;;;;;;;;;;;1025822;28;934;-21
2021/11/08 01:22:49;;;;;;;;;;;;;;;;;;1025833;28;1125;-21
2021/11/08 01:23:22;;;;;;;;;;;;;;;;;;1025842;28;862;-21
2021/11/08 01:23:53;;;;;;;;;;;;;;;;;;1025885;28;1046;-21
2021/11/08 01:24:23;;;;;;;;;;;;;;;;;;1025746;28;882;-22
2021/11/08 01:24:55;;;;;;;;;;;;;;;;;;1025911;28;922;-22
2021/11/08 01:25:29;;;;;;;;;;;;;;;;;;1025775;28;950;-21
2021/11/08 01:26:05;;;;;;;;;;;;;;;;;;1025664;28;953;-22
2021/11/08 01:26:35;;;;;;;;;;;;;;;;;;1025690;28;974;-22
2021/11/08 01:27:06;;;;;;;;;;;;;;;;;;1025765;28;1262;-21
2021/11/08 01:27:40;;;;;;;;;;;;;;;;;;1025615;28;819;-22
2021/11/08 01:28:11;;;;;;;;;;;;;;;;;;1025730;28;1052;-21
2021/11/08 01:28:50;;;;;;;;;;;;;;;;;;1025711;28;935;-21
2021/11/08 01:29:24;;;;;;;;;;;;;;;;;;1025774;28;941;-21
2021/11/08 01:29:54;;;;;;;;;;;;;;;;;;1025795;28;997;-21
2021/11/08 01:30:25;;;;;;;;;;;;;;;;;;1025683;28;891;-21
2021/11/08 01:30:56;;;;;;;;;;;;;;;;;;1025770;28;954;-21
2021/11/08 01:31:27;;;;;;;;;;;;;;;;;;1025637;28;1014;-21
2021/11/08 01:32:00;;;;;;;;;;;;;;;;;;1025600;28;870;-21
2021/11/08 01:32:31;;;;;;;;;;;;;;;;;;1026001;28;966;-21
2021/11/08 01:33:13;;;;;;;;;;;;;;;;;;1025812;28;957;-21
2021/11/08 01:33:49;;;;;;;;;;;;;;;;;;1025767;28;803;-21
2021/11/08 01:34:19;;;;;;;;;;;;;;;;;;1025779;28;870;-21
2021/11/08 01:34:49;;;;;;;;;;;;;;;;;;1025828;28;917;-21
2021/11/08 01:35:28;;;;;;;;;;;;;;;;;;1025613;28;917;-21
2021/11/08 01:36:38;;;;;;;;;;;;;;;;;;1025729;28;974;-22
2021/11/08 01:37:10;;;;;;;;;;;;;;;;;;1025738;28;1407;-21
2021/11/08 01:37:50;;;;;;;;;;;;;;;;;;1025798;28;873;-21
2021/11/08 01:38:24;;;;;;;;;;;;;;;;;;1025709;28;1012;-21
2021/11/08 01:39:01;;;;;;;;;;;;;;;;;;1025728;28;1987;-22
2021/11/08 01:39:35;;;;;;;;;;;;;;;;;;1025822;28;854;-21
2021/11/08 01:40:08;;;;;;;;;;;;;;;;;;1025613;28;1237;-22
2021/11/08 01:40:39;;;;;;;;;;;;;;;;;;1025528;28;957;-21
2021/11/08 01:41:11;;;;;;;;;;;;;;;;;;1025822;28;819;-21
2021/11/08 01:41:43;;;;;;;;;;;;;;;;;;1025859;28;910;-21
2021/11/08 01:42:14;;;;;;;;;;;;;;;;;;1025800;28;937;-21
2021/11/08 01:42:44;;;;;;;;;;;;;;;;;;1025539;28;1283;-21
2021/11/08 01:43:14;;;;;;;;;;;;;;;;;;1025673;28;1135;-21
2021/11/08 01:43:46;;;;;;;;;;;;;;;;;;1025697;28;815;-21
2021/11/08 01:44:17;;;;;;;;;;;;;;;;;;1025773;28;897;-21
2021/11/08 01:44:47;;;;;;;;;;;;;;;;;;1025647;28;850;-21
2021/11/08 01:45:19;;;;;;;;;;;;;;;;;;1025693;28;975;-22
2021/11/08 01:45:49;;;;;;;;;;;;;;;;;;1025678;28;1113;-21
2021/11/08 01:46:21;;;;;;;;;;;;;;;;;;1025770;28;926;-21
2021/11/08 01:46:51;;;;;;;;;;;;;;;;;;1025389;28;1003;-21
2021/11/08 01:47:21;;;;;;;;;;;;;;;;;;1025694;28;882;-21
2021/11/08 01:47:52;;;;;;;;;;;;;;;;;;1025818;28;1106;-21
2021/11/08 01:48:22;;;;;;;;;;;;;;;;;;1025827;28;866;-21
2021/11/08 01:48:53;;;;;;;;;;;;;;;;;;1025548;28;969;-21
2021/11/08 01:49:24;;;;;;;;;;;;;;;;;;1025914;28;977;-22
2021/11/08 01:49:54;;;;;;;;;;;;;;;;;;1029067;28;1174;-21
2021/11/08 01:50:28;;;;;;;;;;;;;;;;;;1029173;28;1060;-21
2021/11/08 01:50:59;;;;;;;;;;;;;;;;;;1029351;28;1092;-22
2021/11/08 01:51:30;;;;;;;;;;;;;;;;;;1028929;28;901;-21
2021/11/08 01:52:00;;;;;;;;;;;;;;;;;;1025626;28;898;-21
2021/11/08 01:52:31;;;;;;;;;;;;;;;;;;1025706;28;906;-22
2021/11/08 01:53:04;;;;;;;;;;;;;;;;;;1025894;28;929;-21
2021/11/08 01:53:34;;;;;;;;;;;;;;;;;;1025614;28;950;-21
2021/11/08 01:54:09;;;;;;;;;;;;;;;;;;1025687;28;823;-21
2021/11/08 01:54:42;;;;;;;;;;;;;;;;;;1025685;28;931;-22
2021/11/08 01:55:13;;;;;;;;;;;;;;;;;;1025627;28;1058;-21
2021/11/08 01:55:43;;;;;;;;;;;;;;;;;;1025620;28;928;-22
2021/11/08 01:56:14;;;;;;;;;;;;;;;;;;1025759;28;1014;-21
2021/11/08 01:56:46;;;;;;;;;;;;;;;;;;1025609;28;933;-22
2021/11/08 01:57:16;;;;;;;;;;;;;;;;;;1025789;28;1005;-21
2021/11/08 01:57:47;;;;;;;;;;;;;;;;;;1025874;28;954;-22
2021/11/08 01:58:19;;;;;;;;;;;;;;;;;;1025629;28;949;-22
2021/11/08 01:58:49;;;;;;;;;;;;;;;;;;1025549;28;1910;-21
2021/11/08 01:59:20;;;;;;;;;;;;;;;;;;1025562;28;926;-20
2021/11/08 01:59:51;;;;;;;;;;;;;;;;;;1025729;28;996;-22
2021/11/08 02:00:24;;;;;;;;;;;;;;;;;;1025344;28;1312;-21
2021/11/08 02:00:54;;;;;;;;;;;;;;;;;;1025449;28;874;-21
2021/11/08 02:01:25;;;;;;;;;;;;;;;;;;1025245;28;957;-21
2021/11/08 02:02:01;;;;;;;;;;;;;;;;;;1025268;28;1087;-21
2021/11/08 02:02:31;;;;;;;;;;;;;;;;;;1025611;28;830;-21
2021/11/08 02:03:02;;;;;;;;;;;;;;;;;;1025739;28;948;-21
2021/11/08 02:03:33;;;;;;;;;;;;;;;;;;1025445;28;1005;-22
2021/11/08 02:04:03;;;;;;;;;;;;;;;;;;1025827;28;1068;-22
2021/11/08 02:04:34;;;;;;;;;;;;;;;;;;1025619;28;970;-21
2021/11/08 02:05:04;;;;;;;;;;;;;;;;;;1025837;28;996;-22
2021/11/08 02:05:34;;;;;;;;;;;;;;;;;;1025604;28;1114;-22
2021/11/08 02:06:05;;;;;;;;;;;;;;;;;;1025626;28;907;-21
2021/11/08 02:06:36;;;;;;;;;;;;;;;;;;1026003;28;1033;-21
2021/11/08 02:07:12;;;;;;;;;;;;;;;;;;1025692;28;953;-21
2021/11/08 02:07:42;;;;;;;;;;;;;;;;;;1025556;28;937;-21
2021/11/08 02:08:14;;;;;;;;;;;;;;;;;;1025569;28;1139;-21
2021/11/08 02:08:44;;;;;;;;;;;;;;;;;;1025669;28;949;-21
2021/11/08 02:09:15;;;;;;;;;;;;;;;;;;1025649;28;839;-22
2021/11/08 02:09:45;;;;;;;;;;;;;;;;;;1025591;28;982;-22
2021/11/08 02:10:16;;;;;;;;;;;;;;;;;;1025885;28;973;-21
2021/11/08 02:10:48;;;;;;;;;;;;;;;;;;1025641;28;945;-22
2021/11/08 02:11:21;;;;;;;;;;;;;;;;;;1025853;28;922;-21
2021/11/08 02:11:52;;;;;;;;;;;;;;;;;;1025456;28;945;-21
2021/11/08 02:12:23;;;;;;;;;;;;;;;;;;1025719;28;952;-21
2021/11/08 02:12:53;;;;;;;;;;;;;;;;;;1025609;28;846;-21
2021/11/08 02:13:23;;;;;;;;;;;;;;;;;;1025839;28;866;-22
2021/11/08 02:13:54;;;;;;;;;;;;;;;;;;1025454;28;1327;-21
2021/11/08 02:14:24;;;;;;;;;;;;;;;;;;1025658;28;862;-21
2021/11/08 02:14:55;;;;;;;;;;;;;;;;;;1025662;28;1132;-21
2021/11/08 02:15:25;;;;;;;;;;;;;;;;;;1025462;28;947;-22
2021/11/08 02:15:55;;;;;;;;;;;;;;;;;;1025643;28;903;-22
2021/11/08 02:16:26;;;;;;;;;;;;;;;;;;1025724;28;1283;-21
2021/11/08 02:16:56;;;;;;;;;;;;;;;;;;1025560;28;857;-21
2021/11/08 02:17:27;;;;;;;;;;;;;;;;;;1025578;28;1021;-21
2021/11/08 02:17:58;;;;;;;;;;;;;;;;;;1025591;28;946;-21
2021/11/08 02:18:28;;;;;;;;;;;;;;;;;;1025574;28;952;-21
2021/11/08 02:19:00;;;;;;;;;;;;;;;;;;1025529;28;1997;-21
2021/11/08 02:19:30;;;;;;;;;;;;;;;;;;1025668;28;969;-21
2021/11/08 02:20:13;;;;;;;;;;;;;;;;;;1025485;28;926;-21
2021/11/08 02:20:47;;;;;;;;;;;;;;;;;;1025673;28;962;-21
2021/11/08 02:21:18;;;;;;;;;;;;;;;;;;1025592;28;891;-21
2021/11/08 02:21:52;;;;;;;;;;;;;;;;;;1025434;28;1008;-22
2021/11/08 02:22:23;;;;;;;;;;;;;;;;;;1025608;28;1025;-21
2021/11/08 02:22:56;;;;;;;;;;;;;;;;;;1025622;28;831;-21
2021/11/08 02:23:27;;;;;;;;;;;;;;;;;;1025691;28;966;-21
2021/11/08 02:23:58;;;;;;;;;;;;;;;;;;1025566;28;910;-21
2021/11/08 02:24:29;;;;;;;;;;;;;;;;;;1025502;28;957;-21
2021/11/08 02:25:00;;;;;;;;;;;;;;;;;;1025537;28;972;-21
2021/11/08 02:25:37;;;;;;;;;;;;;;;;;;1025725;28;842;-21
2021/11/08 02:26:14;;;;;;;;;;;;;;;;;;1025560;28;1039;-22
2021/11/08 02:26:45;;;;;;;;;;;;;;;;;;1025522;28;901;-21
2021/11/08 02:27:19;;;;;;;;;;;;;;;;;;1025601;28;863;-21
2021/11/08 02:27:50;;;;;;;;;;;;;;;;;;1025376;28;989;-21
2021/11/08 02:28:21;;;;;;;;;;;;;;;;;;1025170;28;1036;-21
2021/11/08 02:28:52;;;;;;;;;;;;;;;;;;1025206;28;826;-22
2021/11/08 02:29:23;;;;;;;;;;;;;;;;;;1025314;28;982;-21
2021/11/08 02:29:54;;;;;;;;;;;;;;;;;;1025179;28;977;-22
2021/11/08 02:30:30;;;;;;;;;;;;;;;;;;1025656;28;907;-21
2021/11/08 02:31:01;;;;;;;;;;;;;;;;;;1025378;28;938;-22
2021/11/08 02:31:33;;;;;;;;;;;;;;;;;;1025761;28;950;-21
2021/11/08 02:32:13;;;;;;;;;;;;;;;;;;1025722;28;1003;-21
2021/11/08 02:32:43;;;;;;;;;;;;;;;;;;1025670;28;911;-22
2021/11/08 02:33:16;;;;;;;;;;;;;;;;;;1025298;28;974;-22
2021/11/08 02:33:47;;;;;;;;;;;;;;;;;;1025560;28;874;-22
2021/11/08 02:34:27;;;;;;;;;;;;;;;;;;1025485;28;896;-21
2021/11/08 02:34:59;;;;;;;;;;;;;;;;;;1025644;28;954;-21
2021/11/08 02:35:29;;;;;;;;;;;;;;;;;;1025541;28;1004;-21
2021/11/08 02:36:00;;;;;;;;;;;;;;;;;;1025654;28;953;-21
2021/11/08 02:36:30;;;;;;;;;;;;;;;;;;1025636;28;1024;-21
2021/11/08 02:37:04;;;;;;;;;;;;;;;;;;1025321;28;1068;-21
2021/11/08 02:37:34;;;;;;;;;;;;;;;;;;1025380;28;775;-21
2021/11/08 02:38:05;;;;;;;;;;;;;;;;;;1025507;28;985;-22
2021/11/08 02:38:40;;;;;;;;;;;;;;;;;;1025478;28;1942;-21
2021/11/08 02:39:16;;;;;;;;;;;;;;;;;;1025348;28;969;-21
2021/11/08 02:39:49;;;;;;;;;;;;;;;;;;1025697;28;1127;-21
2021/11/08 02:40:26;;;;;;;;;;;;;;;;;;1025420;28;971;-21
2021/11/08 02:40:58;;;;;;;;;;;;;;;;;;1025773;28;962;-22
2021/11/08 02:41:29;;;;;;;;;;;;;;;;;;1025749;28;1044;-21
2021/11/08 02:42:00;;;;;;;;;;;;;;;;;;1025553;28;981;-21
2021/11/08 02:42:30;;;;;;;;;;;;;;;;;;1025316;28;970;-21
2021/11/08 02:43:02;;;;;;;;;;;;;;;;;;1023579;28;1030;-21
2021/11/08 02:43:33;;;;;;;;;;;;;;;;;;1021069;28;874;-22
2021/11/08 02:44:04;;;;;;;;;;;;;;;;;;1021449;29;1120;-21
2021/11/08 02:44:35;;;;;;;;;;;;;;;;;;1021624;28;933;-21
2021/11/08 02:45:08;;;;;;;;;;;;;;;;;;1021579;28;832;-22
2021/11/08 02:45:39;;;;;;;;;;;;;;;;;;1021628;28;1026;-21
2021/11/08 02:46:13;;;;;;;;;;;;;;;;;;1021356;28;847;-22
2021/11/08 02:46:43;;;;;;;;;;;;;;;;;;1021735;28;1294;-21
2021/11/08 02:47:14;;;;;;;;;;;;;;;;;;1021593;28;912;-21
2021/11/08 02:47:45;;;;;;;;;;;;;;;;;;1021561;28;950;-21
2021/11/08 02:48:22;;;;;;;;;;;;;;;;;;1021528;28;892;-22
2021/11/08 02:48:52;;;;;;;;;;;;;;;;;;1021372;28;950;-21
2021/11/08 02:49:25;;;;;;;;;;;;;;;;;;1021389;28;795;-21
2021/11/08 02:49:57;;;;;;;;;;;;;;;;;;1021594;28;1233;-21
2021/11/08 02:50:30;;;;;;;;;;;;;;;;;;1021258;28;1124;-20
2021/11/08 02:51:17;;;;;;;;;;;;;;;;;;1021785;28;1033;-21
2021/11/08 02:51:57;;;;;;;;;;;;;;;;;;1021630;28;1053;-22
2021/11/08 02:52:31;;;;;;;;;;;;;;;;;;1021488;28;996;-21
2021/11/08 02:53:02;;;;;;;;;;;;;;;;;;1021588;28;1037;-21
2021/11/08 02:53:34;;;;;;;;;;;;;;;;;;1021541;28;803;-21
2021/11/08 02:54:12;;;;;;;;;;;;;;;;;;1021352;28;895;-21
2021/11/08 02:54:46;;;;;;;;;;;;;;;;;;1021429;28;1042;-21
2021/11/08 02:55:18;;;;;;;;;;;;;;;;;;1021464;28;947;-21
2021/11/08 02:55:52;;;;;;;;;;;;;;;;;;1021527;28;922;-21
2021/11/08 02:56:22;;;;;;;;;;;;;;;;;;1021678;28;875;-21
2021/11/08 02:56:53;;;;;;;;;;;;;;;;;;1021331;28;996;-21
2021/11/08 02:57:25;;;;;;;;;;;;;;;;;;1021505;28;905;-22
2021/11/08 02:58:05;;;;;;;;;;;;;;;;;;1021551;28;946;-22
2021/11/08 02:58:37;;;;;;;;;;;;;;;;;;1021460;28;1906;-21
2021/11/08 02:59:07;;;;;;;;;;;;;;;;;;1021607;28;970;-21
2021/11/08 02:59:38;;;;;;;;;;;;;;;;;;1021641;28;1002;-21
2021/11/08 03:00:12;;;;;;;;;;;;;;;;;;1021191;28;801;-21
2021/11/08 03:00:42;;;;;;;;;;;;;;;;;;1024961;28;914;-22
2021/11/08 03:01:17;;;;;;;;;;;;;;;;;;1025089;28;862;-21
2021/11/08 03:01:50;;;;;;;;;;;;;;;;;;1024943;28;1188;-22
2021/11/08 03:02:20;;;;;;;;;;;;;;;;;;1023945;28;938;-21
2021/11/08 03:02:51;;;;;;;;;;;;;;;;;;1021652;28;918;-21
2021/11/08 03:03:28;;;;;;;;;;;;;;;;;;1021633;28;905;-21
2021/11/08 03:04:01;;;;;;;;;;;;;;;;;;1021521;28;985;-21
2021/11/08 03:04:34;;;;;;;;;;;;;;;;;;1021471;28;1006;-22
2021/11/08 03:05:06;;;;;;;;;;;;;;;;;;1021374;28;1393;-22
2021/11/08 03:05:38;;;;;;;;;;;;;;;;;;1021713;28;878;-21
2021/11/08 03:06:48;;;;;;;;;;;;;;;;;;1021230;28;1101;-22
2021/11/08 03:07:20;;;;;;;;;;;;;;;;;;1021402;28;1026;-22
2021/11/08 03:07:51;;;;;;;;;;;;;;;;;;1021525;28;842;-22
2021/11/08 03:08:21;;;;;;;;;;;;;;;;;;1021453;28;901;-21
2021/11/08 03:08:54;;;;;;;;;;;;;;;;;;1021549;28;867;-21
2021/11/08 03:09:35;;;;;;;;;;;;;;;;;;1021657;28;1115;-21
2021/11/08 03:10:07;;;;;;;;;;;;;;;;;;1021370;28;1818;-22
2021/11/08 03:10:38;;;;;;;;;;;;;;;;;;1021640;28;891;-22
2021/11/08 03:11:10;;;;;;;;;;;;;;;;;;1021360;28;945;-21
2021/11/08 03:11:40;;;;;;;;;;;;;;;;;;1021526;28;996;-21
2021/11/08 03:12:12;;;;;;;;;;;;;;;;;;1021379;28;1155;-21
2021/11/08 03:12:45;;;;;;;;;;;;;;;;;;1021347;28;901;-22
2021/11/08 03:13:20;;;;;;;;;;;;;;;;;;1021448;28;854;-21
2021/11/08 03:14:00;;;;;;;;;;;;;;;;;;1021498;28;1053;-22
2021/11/08 03:14:33;;;;;;;;;;;;;;;;;;1021362;28;1317;-22
2021/11/08 03:16:09;;;;;;;;;;;;;;;;;;1021490;28;850;-21
2021/11/08 03:16:23;;;;;;;;;;;;;;;;;;1024927;28;1109;-21
2021/11/08 03:16:57;;;;;;;;;;;;;;;;;;1021325;28;920;-21
2021/11/08 03:17:32;;;;;;;;;;;;;;;;;;1021480;28;962;-21
2021/11/08 03:18:10;;;;;;;;;;;;;;;;;;1021683;28;889;-22
2021/11/08 03:18:42;;;;;;;;;;;;;;;;;;1021400;28;1910;-21
2021/11/08 03:19:23;;;;;;;;;;;;;;;;;;1021371;28;895;-21
2021/11/08 03:19:53;;;;;;;;;;;;;;;;;;1021356;28;1221;-22
2021/11/08 03:20:23;;;;;;;;;;;;;;;;;;1021606;28;840;-21
2021/11/08 03:20:58;;;;;;;;;;;;;;;;;;1021487;28;831;-21
2021/11/08 03:21:29;;;;;;;;;;;;;;;;;;1021470;28;971;-22
2021/11/08 03:22:04;;;;;;;;;;;;;;;;;;1021504;28;984;-21
2021/11/08 03:22:34;;;;;;;;;;;;;;;;;;1021411;28;950;-21
2021/11/08 03:23:07;;;;;;;;;;;;;;;;;;1021523;28;1001;-21
2021/11/08 03:23:38;;;;;;;;;;;;;;;;;;1021363;28;804;-21
2021/11/08 03:24:12;;;;;;;;;;;;;;;;;;1021563;28;1051;-21
2021/11/08 03:25:26;;;;;;;;;;;;;;;;;;1021460;28;767;-21
2021/11/08 03:26:57;;;;;;;;;;;;;;;;;;1024565;28;1075;-21
2021/11/08 03:28:08;;;;;;;;;;;;;;;;;;1021542;28;927;-21
2021/11/08 03:28:38;;;;;;;;;;;;;;;;;;1021454;28;914;-21
2021/11/08 03:29:11;;;;;;;;;;;;;;;;;;1021453;28;1186;-22
2021/11/08 03:29:42;;;;;;;;;;;;;;;;;;1021356;28;808;-22
2021/11/08 03:30:15;;;;;;;;;;;;;;;;;;1021570;28;914;-22
2021/11/08 03:30:48;;;;;;;;;;;;;;;;;;1021619;28;882;-21
2021/11/08 03:31:19;;;;;;;;;;;;;;;;;;1021466;28;977;-21
2021/11/08 03:31:52;;;;;;;;;;;;;;;;;;1021403;28;942;-21
2021/11/08 03:32:22;;;;;;;;;;;;;;;;;;1021550;28;941;-21
2021/11/08 03:32:55;;;;;;;;;;;;;;;;;;1021322;28;1000;-22
2021/11/08 03:33:25;;;;;;;;;;;;;;;;;;1021550;28;1086;-21
2021/11/08 03:33:56;;;;;;;;;;;;;;;;;;1021387;28;968;-21
2021/11/08 03:34:29;;;;;;;;;;;;;;;;;;1021329;28;851;-21
2021/11/08 03:35:04;;;;;;;;;;;;;;;;;;1021449;28;949;-21
2021/11/08 03:35:34;;;;;;;;;;;;;;;;;;1021302;28;977;-21
2021/11/08 03:36:06;;;;;;;;;;;;;;;;;;1021412;28;858;-21
2021/11/08 03:36:36;;;;;;;;;;;;;;;;;;1021478;28;961;-22
2021/11/08 03:37:09;;;;;;;;;;;;;;;;;;1021410;28;934;-21
2021/11/08 03:37:44;;;;;;;;;;;;;;;;;;1021527;28;894;-22
2021/11/08 03:38:15;;;;;;;;;;;;;;;;;;1021333;28;1040;-21
2021/11/08 03:38:45;;;;;;;;;;;;;;;;;;1021189;28;1907;-21
2021/11/08 03:39:16;;;;;;;;;;;;;;;;;;1021591;28;922;-21
2021/11/08 03:39:49;;;;;;;;;;;;;;;;;;1021328;28;890;-21
2021/11/08 03:40:39;;;;;;;;;;;;;;;;;;1021455;28;955;-21
2021/11/08 03:41:09;;;;;;;;;;;;;;;;;;1021466;28;1125;-21
2021/11/08 03:41:43;;;;;;;;;;;;;;;;;;1021282;28;977;-20
2021/11/08 03:42:14;;;;;;;;;;;;;;;;;;1021321;28;764;-21
2021/11/08 03:42:45;;;;;;;;;;;;;;;;;;1021411;28;1009;-22
2021/11/08 03:43:17;;;;;;;;;;;;;;;;;;1023740;28;1225;-21
2021/11/08 03:43:48;;;;;;;;;;;;;;;;;;1025251;28;1075;-22
2021/11/08 03:44:18;;;;;;;;;;;;;;;;;;1025365;28;926;-21
2021/11/08 03:44:49;;;;;;;;;;;;;;;;;;1025033;28;934;-22
2021/11/08 03:45:19;;;;;;;;;;;;;;;;;;1025452;28;946;-22
2021/11/08 03:45:50;;;;;;;;;;;;;;;;;;1025249;28;935;-21
2021/11/08 03:46:21;;;;;;;;;;;;;;;;;;1025526;28;1009;-21
2021/11/08 03:46:52;;;;;;;;;;;;;;;;;;1025135;28;1412;-22
2021/11/08 03:47:22;;;;;;;;;;;;;;;;;;1025359;28;960;-21
2021/11/08 03:47:57;;;;;;;;;;;;;;;;;;1025275;28;1048;-22
2021/11/08 03:48:30;;;;;;;;;;;;;;;;;;1025100;28;976;-22
2021/11/08 03:49:01;;;;;;;;;;;;;;;;;;1025505;28;906;-22
2021/11/08 03:49:31;;;;;;;;;;;;;;;;;;1025260;28;1252;-21
2021/11/08 03:50:03;;;;;;;;;;;;;;;;;;1025279;28;866;-22
2021/11/08 03:50:33;;;;;;;;;;;;;;;;;;1025048;28;1124;-22
2021/11/08 03:51:04;;;;;;;;;;;;;;;;;;1025465;28;957;-22
2021/11/08 03:51:35;;;;;;;;;;;;;;;;;;1025238;28;993;-21
2021/11/08 03:52:05;;;;;;;;;;;;;;;;;;1025222;28;1224;-21
2021/11/08 03:52:38;;;;;;;;;;;;;;;;;;1025332;28;950;-21